Time,TemperatureF,DewpointF,PressureIn,WindDirection,WindDirectionDegrees,WindSpeedMPH,WindSpeedGustMPH,Humidity,HourlyPrecipIn,Conditions,Clouds,dailyrainin,SoftwareType,DateUTC
2013-04-08 00:04:00,58.7,54.8,29.81,SSW,192,1.0,2.0,87,0.00,,,0.00,Wunderground v.1.15,2013-04-08 07:04:00,
2013-04-08 00:14:00,58.7,54.8,29.81,SSE,163,0.0,0.0,87,0.00,,,0.00,Wunderground v.1.15,2013-04-08 07:14:00,
2013-04-08 00:24:00,58.7,54.8,29.81,SSE,165,0.0,0.0,87,0.00,,,0.00,Wunderground v.1.15,2013-04-08 07:24:00,
2013-04-08 00:34:00,58.7,54.8,29.80,SE,130,1.0,1.0,87,0.00,,,0.00,Wunderground v.1.15,2013-04-08 07:34:00,
2013-04-08 00:44:00,58.6,54.7,29.80,South,173,0.0,0.0,87,0.00,,,0.00,Wunderground v.1.15,2013-04-08 07:44:00,
2013-04-08 00:54:00,58.6,54.7,29.80,SSE,156,0.0,0.0,87,0.00,,,0.00,Wunderground v.1.15,2013-04-08 07:54:00,
2013-04-08 01:14:00,58.3,54.8,29.80,South,173,3.0,3.0,88,0.00,,,0.00,Wunderground v.1.15,2013-04-08 08:14:00,
2013-04-08 01:34:00,58.0,54.8,29.79,SSE,153,4.0,4.0,89,0.00,,,0.00,Wunderground v.1.15,2013-04-08 08:34:00,
2013-04-08 01:54:00,57.6,53.8,29.77,South,180,2.0,2.0,87,0.00,,,0.00,Wunderground v.1.15,2013-04-08 08:54:00,
2013-04-08 02:04:00,57.3,53.5,29.76,South,171,2.0,2.0,87,0.00,,,0.00,Wunderground v.1.15,2013-04-08 09:04:00,
2013-04-08 02:14:00,57.3,53.8,29.76,SE,134,1.0,1.0,88,0.00,,,0.00,Wunderground v.1.15,2013-04-08 09:14:00,
2013-04-08 02:24:00,57.3,53.8,29.76,SSW,210,1.0,1.0,88,0.00,,,0.00,Wunderground v.1.15,2013-04-08 09:24:00,
2013-04-08 02:34:00,57.3,53.8,29.76,SSE,160,1.0,1.0,88,0.00,,,0.00,Wunderground v.1.15,2013-04-08 09:34:00,
2013-04-08 02:54:00,57.5,54.3,29.76,SE,144,1.0,4.0,89,0.00,,,0.00,Wunderground v.1.15,2013-04-08 09:54:00,
2013-04-08 03:04:00,57.7,54.5,29.75,South,172,2.0,4.0,89,0.00,,,0.00,Wunderground v.1.15,2013-04-08 10:04:00,
2013-04-08 03:14:00,57.8,54.3,29.74,SSW,201,3.0,7.0,88,0.00,,,0.00,Wunderground v.1.15,2013-04-08 10:14:00,
2013-04-08 03:34:00,57.8,54.3,29.75,South,190,1.0,1.0,88,0.00,,,0.00,Wunderground v.1.15,2013-04-08 10:34:00,
2013-04-08 03:44:00,57.8,54.3,29.74,South,176,1.0,1.0,88,0.00,,,0.00,Wunderground v.1.15,2013-04-08 10:44:00,
2013-04-08 03:54:00,57.8,54.3,29.74,SSW,196,1.0,1.0,88,0.00,,,0.00,Wunderground v.1.15,2013-04-08 10:54:00,
2013-04-08 04:14:00,57.9,54.7,29.73,South,175,1.0,1.0,89,0.00,,,0.00,Wunderground v.1.15,2013-04-08 11:14:00,
2013-04-08 04:34:00,57.8,54.9,29.72,South,178,3.0,3.0,90,0.00,,,0.00,Wunderground v.1.15,2013-04-08 11:34:00,
2013-04-08 04:54:00,57.6,54.7,29.73,West,279,4.0,6.0,90,0.00,,,0.00,Wunderground v.1.15,2013-04-08 11:54:00,
2013-04-08 05:04:00,57.3,54.4,29.73,WSW,247,1.0,5.0,90,0.00,,,0.00,Wunderground v.1.15,2013-04-08 12:04:00,
2013-04-08 05:14:00,57.2,54.3,29.72,SSW,213,4.0,5.0,90,0.00,,,0.00,Wunderground v.1.15,2013-04-08 12:14:00,
2013-04-08 05:24:00,57.0,54.1,29.72,WSW,246,2.0,5.0,90,0.00,,,0.00,Wunderground v.1.15,2013-04-08 12:24:00,
2013-04-08 05:34:00,56.9,54.0,29.71,SSW,212,3.0,8.0,90,0.00,,,0.00,Wunderground v.1.15,2013-04-08 12:34:00,
2013-04-08 05:44:00,56.7,54.1,29.72,WNW,290,2.0,2.0,91,0.00,,,0.00,Wunderground v.1.15,2013-04-08 12:44:00,
2013-04-08 05:54:00,57.2,54.9,29.71,West,263,5.0,5.0,92,0.00,,,0.00,Wunderground v.1.15,2013-04-08 12:54:00,
2013-04-08 06:04:00,56.9,54.0,29.72,WNW,283,7.0,7.0,90,0.00,,,0.00,Wunderground v.1.15,2013-04-08 13:04:00,
2013-04-08 06:14:00,56.5,51.7,29.72,NNW,331,8.0,10.0,84,0.00,,,0.00,Wunderground v.1.15,2013-04-08 13:14:00,
2013-04-08 06:34:00,56.3,51.2,29.72,WNW,282,6.0,7.0,83,0.00,,,0.00,Wunderground v.1.15,2013-04-08 13:34:00,
2013-04-08 06:44:00,56.6,50.8,29.73,NW,306,6.0,6.0,81,0.00,,,0.00,Wunderground v.1.15,2013-04-08 13:44:00,
2013-04-08 06:54:00,56.4,51.0,29.72,West,281,6.0,6.0,82,0.00,,,0.00,Wunderground v.1.15,2013-04-08 13:54:00,
2013-04-08 07:04:00,56.2,51.1,29.72,West,274,5.0,5.0,83,0.00,,,0.00,Wunderground v.1.15,2013-04-08 14:04:00,
2013-04-08 07:14:00,56.2,50.4,29.72,WSW,258,6.0,6.0,81,0.00,,,0.00,Wunderground v.1.15,2013-04-08 14:14:00,
2013-04-08 07:24:00,56.4,51.0,29.72,West,275,8.0,8.0,82,0.00,,,0.00,Wunderground v.1.15,2013-04-08 14:24:00,
2013-04-08 07:34:00,56.3,50.5,29.71,West,266,9.0,9.0,81,0.00,,,0.00,Wunderground v.1.15,2013-04-08 14:34:00,
2013-04-08 07:44:00,56.2,51.4,29.72,WNW,292,9.0,9.0,84,0.00,,,0.00,Wunderground v.1.15,2013-04-08 14:44:00,
2013-04-08 07:54:00,56.0,51.2,29.71,NW,319,11.0,11.0,84,0.00,,,0.00,Wunderground v.1.15,2013-04-08 14:54:00,
2013-04-08 08:04:00,55.8,51.4,29.71,WNW,282,11.0,11.0,85,0.00,,,0.00,Wunderground v.1.15,2013-04-08 15:04:00,
2013-04-08 08:14:00,55.8,49.7,29.71,West,267,11.0,11.0,80,0.00,,,0.00,Wunderground v.1.15,2013-04-08 15:14:00,
2013-04-08 08:24:00,55.9,49.5,29.72,WNW,292,11.0,15.0,79,0.00,,,0.00,Wunderground v.1.15,2013-04-08 15:24:00,
2013-04-08 08:34:00,55.8,48.7,29.72,WNW,296,11.0,15.0,77,0.00,,,0.00,Wunderground v.1.15,2013-04-08 15:34:00,
2013-04-08 08:44:00,55.6,48.2,29.71,NW,304,13.0,13.0,76,0.00,,,0.00,Wunderground v.1.15,2013-04-08 15:44:00,
2013-04-08 09:04:00,55.5,47.7,29.72,WSW,245,12.0,18.0,75,0.00,,,0.00,Wunderground v.1.15,2013-04-08 16:04:00,
2013-04-08 09:14:00,55.1,47.3,29.73,West,275,13.0,15.0,75,0.00,,,0.00,Wunderground v.1.15,2013-04-08 16:14:00,
2013-04-08 09:24:00,55.9,46.6,29.73,WNW,297,11.0,15.0,71,0.00,,,0.00,Wunderground v.1.15,2013-04-08 16:24:00,
2013-04-08 09:34:00,55.8,46.2,29.74,NW,304,12.0,14.0,70,0.00,,,0.00,Wunderground v.1.15,2013-04-08 16:34:00,
2013-04-08 09:44:00,55.9,47.0,29.74,West,269,11.0,23.0,72,0.00,,,0.00,Wunderground v.1.15,2013-04-08 16:44:00,
2013-04-08 09:54:00,56.1,46.4,29.74,WNW,296,13.0,16.0,70,0.00,,,0.00,Wunderground v.1.15,2013-04-08 16:54:00,
2013-04-08 10:14:00,56.4,47.9,29.74,NW,321,12.0,15.0,73,0.00,,,0.00,Wunderground v.1.15,2013-04-08 17:14:00,
2013-04-08 10:24:00,56.3,47.4,29.74,WNW,294,13.0,13.0,72,0.00,,,0.00,Wunderground v.1.15,2013-04-08 17:24:00,
2013-04-08 10:34:00,56.5,47.6,29.75,West,275,12.0,13.0,72,0.00,,,0.00,Wunderground v.1.15,2013-04-08 17:34:00,
2013-04-08 10:44:00,56.6,46.9,29.75,NNW,341,13.0,16.0,70,0.00,,,0.00,Wunderground v.1.15,2013-04-08 17:44:00,
2013-04-08 10:54:00,56.6,45.8,29.75,WNW,292,13.0,13.0,67,0.00,,,0.00,Wunderground v.1.15,2013-04-08 17:54:00,
2013-04-08 11:04:00,57.0,46.9,29.74,West,278,13.0,15.0,69,0.00,,,0.00,Wunderground v.1.15,2013-04-08 18:04:00,
2013-04-08 11:14:00,57.3,47.6,29.74,NW,318,11.0,11.0,70,0.00,,,0.00,Wunderground v.1.15,2013-04-08 18:14:00,
2013-04-08 11:24:00,56.6,46.5,29.75,WNW,288,8.0,12.0,69,0.00,,,0.00,Wunderground v.1.15,2013-04-08 18:24:00,
2013-04-08 11:34:00,56.0,47.1,29.75,WNW,289,6.0,6.0,72,0.00,,,0.00,Wunderground v.1.15,2013-04-08 18:34:00,
2013-04-08 11:44:00,56.6,47.7,29.74,West,263,6.0,7.0,72,0.00,,,0.00,Wunderground v.1.15,2013-04-08 18:44:00,
2013-04-08 11:54:00,57.1,48.2,29.73,WSW,238,11.0,11.0,72,0.00,,,0.00,Wunderground v.1.15,2013-04-08 18:54:00,
2013-04-08 12:04:00,57.5,47.8,29.73,West,266,11.0,11.0,70,0.00,,,0.00,Wunderground v.1.15,2013-04-08 19:04:00,
2013-04-08 12:14:00,57.6,47.9,29.74,WNW,291,8.0,9.0,70,0.00,,,0.00,Wunderground v.1.15,2013-04-08 19:14:00,
2013-04-08 12:24:00,58.0,47.5,29.73,WNW,286,6.0,9.0,68,0.00,,,0.00,Wunderground v.1.15,2013-04-08 19:24:00,
2013-04-08 12:34:00,58.3,48.6,29.73,WNW,285,6.0,6.0,70,0.00,,,0.00,Wunderground v.1.15,2013-04-08 19:34:00,
2013-04-08 12:44:00,58.4,48.3,29.72,WSW,242,8.0,8.0,69,0.00,,,0.00,Wunderground v.1.15,2013-04-08 19:44:00,
2013-04-08 12:54:00,58.8,48.3,29.72,NW,318,6.0,7.0,68,0.00,,,0.00,Wunderground v.1.15,2013-04-08 19:54:00,
2013-04-08 13:04:00,59.1,48.1,29.72,West,275,7.0,8.0,67,0.00,,,0.00,Wunderground v.1.15,2013-04-08 20:04:00,
2013-04-08 13:14:00,59.4,48.4,29.70,West,259,9.0,14.0,67,0.00,,,0.00,Wunderground v.1.15,2013-04-08 20:14:00,
2013-04-08 13:24:00,59.0,49.2,29.70,West,262,12.0,12.0,70,0.00,,,0.00,Wunderground v.1.15,2013-04-08 20:24:00,
2013-04-08 13:44:00,59.5,48.5,29.71,NNW,342,7.0,19.0,67,0.00,,,0.00,Wunderground v.1.15,2013-04-08 20:44:00,
2013-04-08 13:54:00,59.2,48.6,29.70,WSW,253,10.0,12.0,68,0.00,,,0.00,Wunderground v.1.15,2013-04-08 20:54:00,
2013-04-08 14:04:00,59.3,49.1,29.70,NNW,329,9.0,15.0,69,0.00,,,0.00,Wunderground v.1.15,2013-04-08 21:04:00,
2013-04-08 14:14:00,59.2,48.6,29.70,WSW,237,11.0,18.0,68,0.00,,,0.00,Wunderground v.1.15,2013-04-08 21:14:00,
2013-04-08 14:24:00,59.3,49.1,29.70,WNW,296,10.0,10.0,69,0.00,,,0.00,Wunderground v.1.15,2013-04-08 21:24:00,
2013-04-08 14:34:00,59.2,49.0,29.70,WNW,290,10.0,10.0,69,0.00,,,0.00,Wunderground v.1.15,2013-04-08 21:34:00,
2013-04-08 14:44:00,59.4,48.4,29.70,NNW,330,12.0,12.0,67,0.00,,,0.00,Wunderground v.1.15,2013-04-08 21:44:00,
2013-04-08 15:04:00,59.5,48.9,29.69,WNW,295,11.0,11.0,68,0.00,,,0.00,Wunderground v.1.15,2013-04-08 22:04:00,
2013-04-08 15:24:00,59.8,49.2,29.69,WSW,258,9.0,9.0,68,0.00,,,0.00,Wunderground v.1.15,2013-04-08 22:24:00,
2013-04-08 15:34:00,60.1,49.5,29.69,NNW,340,5.0,5.0,68,0.00,,,0.00,Wunderground v.1.15,2013-04-08 22:34:00,
2013-04-08 15:44:00,60.2,49.6,29.69,West,266,6.0,6.0,68,0.00,,,0.00,Wunderground v.1.15,2013-04-08 22:44:00,
2013-04-08 15:54:00,59.5,49.7,29.69,WNW,300,11.0,11.0,70,0.00,,,0.00,Wunderground v.1.15,2013-04-08 22:54:00,
2013-04-08 16:04:00,59.7,49.5,29.69,NNW,333,8.0,8.0,69,0.00,,,0.00,Wunderground v.1.15,2013-04-08 23:04:00,
2013-04-08 16:14:00,59.9,49.3,29.69,NNW,346,8.0,12.0,68,0.00,,,0.00,Wunderground v.1.15,2013-04-08 23:14:00,
2013-04-08 16:24:00,59.6,49.4,29.69,West,279,8.0,8.0,69,0.00,,,0.00,Wunderground v.1.15,2013-04-08 23:24:00,
2013-04-08 16:34:00,59.4,49.6,29.69,WNW,300,9.0,9.0,70,0.00,,,0.00,Wunderground v.1.15,2013-04-08 23:34:00,
2013-04-08 16:44:00,59.3,49.5,29.69,West,281,6.0,7.0,70,0.00,,,0.00,Wunderground v.1.15,2013-04-08 23:44:00,
2013-04-08 16:54:00,59.3,49.9,29.69,WNW,301,8.0,8.0,71,0.00,,,0.00,Wunderground v.1.15,2013-04-08 23:54:00,
2013-04-08 17:04:00,59.4,50.4,29.69,WNW,284,7.0,7.0,72,0.00,,,0.00,Wunderground v.1.15,2013-04-09 00:04:00,
2013-04-08 17:14:00,59.0,49.6,29.68,NNW,332,7.0,8.0,71,0.00,,,0.00,Wunderground v.1.15,2013-04-09 00:14:00,
2013-04-08 17:24:00,59.0,50.4,29.68,West,264,6.0,6.0,73,0.00,,,0.00,Wunderground v.1.15,2013-04-09 00:24:00,
2013-04-08 17:34:00,58.9,49.9,29.69,NW,317,6.0,11.0,72,0.00,,,0.00,Wunderground v.1.15,2013-04-09 00:34:00,
2013-04-08 17:54:00,58.4,49.8,29.69,WNW,286,7.0,11.0,73,0.00,,,0.00,Wunderground v.1.15,2013-04-09 00:54:00,
2013-04-08 18:14:00,58.3,50.4,29.70,WNW,286,4.0,14.0,75,0.00,,,0.00,Wunderground v.1.15,2013-04-09 01:14:00,
2013-04-08 18:24:00,58.1,50.2,29.70,NNW,329,5.0,5.0,75,0.00,,,0.00,Wunderground v.1.15,2013-04-09 01:24:00,
2013-04-08 18:34:00,58.1,49.9,29.70,West,277,3.0,6.0,74,0.00,,,0.00,Wunderground v.1.15,2013-04-09 01:34:00,
2013-04-08 18:44:00,57.8,49.9,29.70,West,277,3.0,7.0,75,0.00,,,0.00,Wunderground v.1.15,2013-04-09 01:44:00,
2013-04-08 18:54:00,57.6,50.1,29.71,NNW,331,1.0,1.0,76,0.00,,,0.00,Wunderground v.1.15,2013-04-09 01:54:00,
2013-04-08 19:14:00,56.9,50.1,29.71,WNW,288,0.0,2.0,78,0.00,,,0.00,Wunderground v.1.15,2013-04-09 02:14:00,
2013-04-08 19:24:00,56.7,50.3,29.72,WNW,289,1.0,1.0,79,0.00,,,0.00,Wunderground v.1.15,2013-04-09 02:24:00,
2013-04-08 19:34:00,56.5,50.4,29.72,West,279,1.0,9.0,80,0.00,,,0.00,Wunderground v.1.15,2013-04-09 02:34:00,
2013-04-08 19:44:00,56.3,50.2,29.72,WNW,294,2.0,2.0,80,0.00,,,0.00,Wunderground v.1.15,2013-04-09 02:44:00,
2013-04-08 19:54:00,56.4,50.0,29.73,SW,227,2.0,2.0,79,0.00,,,0.00,Wunderground v.1.15,2013-04-09 02:54:00,
2013-04-08 20:14:00,56.3,49.9,29.74,West,281,3.0,3.0,79,0.00,,,0.00,Wunderground v.1.15,2013-04-09 03:14:00,
2013-04-08 20:34:00,56.1,50.3,29.74,West,267,2.0,8.0,81,0.00,,,0.00,Wunderground v.1.15,2013-04-09 03:34:00,
2013-04-08 20:44:00,56.0,50.6,29.75,WNW,294,1.0,1.0,82,0.00,,,0.00,Wunderground v.1.15,2013-04-09 03:44:00,
2013-04-08 20:54:00,55.8,50.4,29.75,WSW,254,1.0,1.0,82,0.00,,,0.00,Wunderground v.1.15,2013-04-09 03:54:00,
2013-04-08 21:04:00,55.7,50.0,29.75,NW,321,0.0,0.0,81,0.00,,,0.00,Wunderground v.1.15,2013-04-09 04:04:00,
2013-04-08 21:14:00,55.5,49.8,29.76,NW,320,0.0,0.0,81,0.00,,,0.00,Wunderground v.1.15,2013-04-09 04:14:00,
2013-04-08 21:34:00,55.0,49.9,29.76,SSW,202,0.0,0.0,83,0.00,,,0.00,Wunderground v.1.15,2013-04-09 04:34:00,
2013-04-08 21:44:00,54.8,49.7,29.76,SSW,202,0.0,0.0,83,0.00,,,0.00,Wunderground v.1.15,2013-04-09 04:44:00,
2013-04-08 21:54:00,54.5,49.8,29.77,SSW,202,0.0,0.0,84,0.00,,,0.00,Wunderground v.1.15,2013-04-09 04:54:00,
2013-04-08 22:04:00,54.1,49.4,29.77,SSW,202,0.0,0.0,84,0.00,,,0.00,Wunderground v.1.15,2013-04-09 05:04:00,
2013-04-08 22:14:00,54.0,49.6,29.77,South,176,0.0,0.0,85,0.00,,,0.00,Wunderground v.1.15,2013-04-09 05:14:00,
2013-04-08 22:24:00,54.0,49.6,29.78,SE,132,0.0,0.0,85,0.00,,,0.00,Wunderground v.1.15,2013-04-09 05:24:00,
2013-04-08 22:34:00,54.1,49.1,29.78,East,92,0.0,0.0,83,0.00,,,0.00,Wunderground v.1.15,2013-04-09 05:34:00,
2013-04-08 22:44:00,53.9,48.5,29.78,East,92,0.0,0.0,82,0.00,,,0.00,Wunderground v.1.15,2013-04-09 05:44:00,
2013-04-08 22:54:00,53.7,48.3,29.79,East,91,0.0,0.0,82,0.00,,,0.00,Wunderground v.1.15,2013-04-09 05:54:00,
2013-04-08 23:04:00,53.4,48.0,29.79,East,101,0.0,0.0,82,0.00,,,0.00,Wunderground v.1.15,2013-04-09 06:04:00,
2013-04-08 23:14:00,53.4,48.0,29.79,ESE,109,0.0,0.0,82,0.00,,,0.00,Wunderground v.1.15,2013-04-09 06:14:00,
2013-04-08 23:24:00,53.1,47.7,29.80,ESE,107,0.0,0.0,82,0.00,,,0.00,Wunderground v.1.15,2013-04-09 06:24:00,
2013-04-08 23:34:00,53.0,48.0,29.80,East,79,0.0,0.0,83,0.00,,,0.00,Wunderground v.1.15,2013-04-09 06:34:00,